sensor_id;sensor_type;location;lat;lon;timestamp;P1;durP1;ratioP1;P2;durP2;ratioP2
36303;SDS011;22335;49.800;8.596;2022-09-27T00:06:00;8.35;;;7.85;;
36303;SDS011;22335;49.800;8.596;2022-09-27T00:12:48;7.65;;;7.25;;
36303;SDS011;22335;49.800;8.596;2022-09-27T00:19:37;7.97;;;7.30;;
36303;SDS011;22335;49.800;8.596;2022-09-27T00:26:22;8.63;;;8.00;;
36303;SDS011;22335;49.800;8.596;2022-09-27T00:33:08;8.40;;;7.80;;
36303;SDS011;22335;49.800;8.596;2022-09-27T00:39:57;7.80;;;7.30;;
36303;SDS011;22335;49.800;8.596;2022-09-27T00:46:43;8.43;;;7.90;;
36303;SDS011;22335;49.800;8.596;2022-09-27T00:53:34;8.70;;;8.10;;
36303;SDS011;22335;49.800;8.596;2022-09-27T01:00:31;8.45;;;7.85;;
36303;SDS011;22335;49.800;8.596;2022-09-27T01:07:18;7.82;;;7.43;;
36303;SDS011;22335;49.800;8.596;2022-09-27T01:14:20;7.80;;;7.30;;
36303;SDS011;22335;49.800;8.596;2022-09-27T01:21:34;8.13;;;7.63;;
36303;SDS011;22335;49.800;8.596;2022-09-27T01:28:40;7.90;;;7.50;;
36303;SDS011;22335;49.800;8.596;2022-09-27T01:35:43;7.88;;;7.20;;
36303;SDS011;22335;49.800;8.596;2022-09-27T01:42:44;7.78;;;7.07;;
36303;SDS011;22335;49.800;8.596;2022-09-27T01:49:38;7.32;;;6.78;;
36303;SDS011;22335;49.800;8.596;2022-09-27T01:56:33;7.72;;;7.22;;
36303;SDS011;22335;49.800;8.596;2022-09-27T02:03:32;7.32;;;6.93;;
36303;SDS011;22335;49.800;8.596;2022-09-27T02:10:45;7.45;;;6.85;;
36303;SDS011;22335;49.800;8.596;2022-09-27T02:17:39;7.07;;;6.68;;
36303;SDS011;22335;49.800;8.596;2022-09-27T02:24:33;7.50;;;6.90;;
36303;SDS011;22335;49.800;8.596;2022-09-27T02:31:24;7.95;;;7.18;;
36303;SDS011;22335;49.800;8.596;2022-09-27T02:38:13;7.40;;;6.90;;
36303;SDS011;22335;49.800;8.596;2022-09-27T02:45:00;7.55;;;7.05;;
36303;SDS011;22335;49.800;8.596;2022-09-27T03:05:46;7.03;;;6.70;;
36303;SDS011;22335;49.800;8.596;2022-09-27T03:12:39;7.40;;;6.80;;
36303;SDS011;22335;49.800;8.596;2022-09-27T03:19:25;7.20;;;6.70;;
36303;SDS011;22335;49.800;8.596;2022-09-27T03:26:33;7.28;;;6.68;;
36303;SDS011;22335;49.800;8.596;2022-09-27T03:33:19;6.40;;;5.90;;
36303;SDS011;22335;49.800;8.596;2022-09-27T03:40:10;6.35;;;6.05;;
36303;SDS011;22335;49.800;8.596;2022-09-27T03:46:59;6.30;;;5.90;;
36303;SDS011;22335;49.800;8.596;2022-09-27T03:53:45;6.30;;;6.00;;
36303;SDS011;22335;49.800;8.596;2022-09-27T04:00:31;5.60;;;5.40;;
36303;SDS011;22335;49.800;8.596;2022-09-27T04:14:06;5.70;;;5.40;;
36303;SDS011;22335;49.800;8.596;2022-09-27T04:21:10;5.93;;;5.53;;
36303;SDS011;22335;49.800;8.596;2022-09-27T04:28:05;6.25;;;6.00;;
36303;SDS011;22335;49.800;8.596;2022-09-27T04:34:51;6.50;;;6.20;;
36303;SDS011;22335;49.800;8.596;2022-09-27T04:41:49;5.72;;;5.43;;
36303;SDS011;22335;49.800;8.596;2022-09-27T04:48:37;5.70;;;5.40;;
36303;SDS011;22335;49.800;8.596;2022-09-27T04:55:23;6.10;;;5.80;;
36303;SDS011;22335;49.800;8.596;2022-09-27T05:02:09;6.00;;;5.60;;
36303;SDS011;22335;49.800;8.596;2022-09-27T05:09:20;5.50;;;5.30;;
36303;SDS011;22335;49.800;8.596;2022-09-27T05:16:09;5.78;;;5.57;;
36303;SDS011;22335;49.800;8.596;2022-09-27T05:23:34;6.10;;;5.70;;
36303;SDS011;22335;49.800;8.596;2022-09-27T05:30:22;5.60;;;5.20;;
36303;SDS011;22335;49.800;8.596;2022-09-27T05:37:18;6.18;;;5.65;;
36303;SDS011;22335;49.800;8.596;2022-09-27T05:44:03;5.13;;;4.82;;
36303;SDS011;22335;49.800;8.596;2022-09-27T05:50:56;5.20;;;4.90;;
36303;SDS011;22335;49.800;8.596;2022-09-27T05:57:52;5.30;;;5.10;;
36303;SDS011;22335;49.800;8.596;2022-09-27T06:04:46;5.85;;;5.40;;
36303;SDS011;22335;49.800;8.596;2022-09-27T06:11:53;5.32;;;5.03;;
36303;SDS011;22335;49.800;8.596;2022-09-27T06:18:41;5.22;;;5.03;;
36303;SDS011;22335;49.800;8.596;2022-09-27T06:25:27;5.45;;;5.10;;
36303;SDS011;22335;49.800;8.596;2022-09-27T06:32:33;5.10;;;4.80;;
36303;SDS011;22335;49.800;8.596;2022-09-27T06:39:30;5.30;;;5.10;;
36303;SDS011;22335;49.800;8.596;2022-09-27T06:46:36;5.50;;;5.20;;
36303;SDS011;22335;49.800;8.596;2022-09-27T06:53:26;5.80;;;5.40;;
36303;SDS011;22335;49.800;8.596;2022-09-27T07:00:12;5.30;;;5.10;;
36303;SDS011;22335;49.800;8.596;2022-09-27T07:07:27;5.60;;;5.40;;
36303;SDS011;22335;49.800;8.596;2022-09-27T07:14:16;5.13;;;4.93;;
36303;SDS011;22335;49.800;8.596;2022-09-27T07:21:03;5.57;;;5.28;;
36303;SDS011;22335;49.800;8.596;2022-09-27T07:27:50;5.20;;;5.00;;
36303;SDS011;22335;49.800;8.596;2022-09-27T07:34:39;5.70;;;5.20;;
36303;SDS011;22335;49.800;8.596;2022-09-27T07:41:26;5.50;;;5.20;;
36303;SDS011;22335;49.800;8.596;2022-09-27T07:48:12;5.80;;;5.50;;
36303;SDS011;22335;49.800;8.596;2022-09-27T07:55:15;5.40;;;5.20;;
36303;SDS011;22335;49.800;8.596;2022-09-27T08:02:10;5.30;;;5.10;;
36303;SDS011;22335;49.800;8.596;2022-09-27T08:09:04;5.47;;;5.28;;
36303;SDS011;22335;49.800;8.596;2022-09-27T08:15:54;5.20;;;4.95;;
36303;SDS011;22335;49.800;8.596;2022-09-27T08:23:03;5.40;;;5.10;;
36303;SDS011;22335;49.800;8.596;2022-09-27T08:29:53;5.22;;;5.03;;
36303;SDS011;22335;49.800;8.596;2022-09-27T08:36:42;5.30;;;4.95;;
36303;SDS011;22335;49.800;8.596;2022-09-27T08:43:33;5.40;;;5.00;;
36303;SDS011;22335;49.800;8.596;2022-09-27T08:50:26;5.93;;;5.55;;
36303;SDS011;22335;49.800;8.596;2022-09-27T08:57:24;5.20;;;5.00;;
36303;SDS011;22335;49.800;8.596;2022-09-27T09:04:10;5.32;;;5.13;;
36303;SDS011;22335;49.800;8.596;2022-09-27T09:18:18;5.57;;;5.18;;
36303;SDS011;22335;49.800;8.596;2022-09-27T09:25:33;5.53;;;5.22;;
36303;SDS011;22335;49.800;8.596;2022-09-27T09:32:31;4.80;;;4.60;;
36303;SDS011;22335;49.800;8.596;2022-09-27T09:39:32;5.07;;;4.80;;
36303;SDS011;22335;49.800;8.596;2022-09-27T09:46:25;5.00;;;4.80;;
36303;SDS011;22335;49.800;8.596;2022-09-27T09:53:21;5.55;;;5.20;;
36303;SDS011;22335;49.800;8.596;2022-09-27T10:00:27;5.40;;;5.00;;
36303;SDS011;22335;49.800;8.596;2022-09-27T10:07:14;6.32;;;5.90;;
36303;SDS011;22335;49.800;8.596;2022-09-27T10:14:07;5.53;;;5.07;;
36303;SDS011;22335;49.800;8.596;2022-09-27T10:21:01;5.85;;;5.55;;
36303;SDS011;22335;49.800;8.596;2022-09-27T10:27:54;5.70;;;5.50;;
36303;SDS011;22335;49.800;8.596;2022-09-27T10:34:45;5.40;;;5.20;;
36303;SDS011;22335;49.800;8.596;2022-09-27T10:41:36;5.20;;;5.00;;
36303;SDS011;22335;49.800;8.596;2022-09-27T10:48:28;5.38;;;5.18;;
36303;SDS011;22335;49.800;8.596;2022-09-27T10:55:20;5.20;;;4.90;;
36303;SDS011;22335;49.800;8.596;2022-09-27T11:02:18;5.20;;;5.00;;
36303;SDS011;22335;49.800;8.596;2022-09-27T11:09:16;5.30;;;4.90;;
36303;SDS011;22335;49.800;8.596;2022-09-27T11:16:20;5.22;;;5.03;;
36303;SDS011;22335;49.800;8.596;2022-09-27T11:23:38;5.43;;;5.13;;
36303;SDS011;22335;49.800;8.596;2022-09-27T11:30:40;5.47;;;5.18;;
36303;SDS011;22335;49.800;8.596;2022-09-27T11:37:49;5.53;;;5.22;;
36303;SDS011;22335;49.800;8.596;2022-09-27T11:44:52;5.10;;;4.80;;
36303;SDS011;22335;49.800;8.596;2022-09-27T11:52:21;4.85;;;4.63;;
36303;SDS011;22335;49.800;8.596;2022-09-27T12:07:01;6.07;;;5.47;;
36303;SDS011;22335;49.800;8.596;2022-09-27T12:13:53;5.68;;;5.35;;
36303;SDS011;22335;49.800;8.596;2022-09-27T12:20:45;5.80;;;5.18;;
36303;SDS011;22335;49.800;8.596;2022-09-27T12:34:31;5.60;;;4.80;;
36303;SDS011;22335;49.800;8.596;2022-09-27T12:41:24;5.43;;;4.95;;
36303;SDS011;22335;49.800;8.596;2022-09-27T12:48:34;4.93;;;4.63;;
36303;SDS011;22335;49.800;8.596;2022-09-27T13:02:58;5.20;;;4.80;;
36303;SDS011;22335;49.800;8.596;2022-09-27T13:10:30;5.38;;;5.03;;
36303;SDS011;22335;49.800;8.596;2022-09-27T13:17:49;8.05;;;5.45;;
36303;SDS011;22335;49.800;8.596;2022-09-27T13:24:54;4.95;;;4.75;;
36303;SDS011;22335;49.800;8.596;2022-09-27T13:39:23;5.35;;;5.15;;
36303;SDS011;22335;49.800;8.596;2022-09-27T13:46:47;5.07;;;4.88;;
36303;SDS011;22335;49.800;8.596;2022-09-27T13:53:38;5.70;;;5.35;;
36303;SDS011;22335;49.800;8.596;2022-09-27T14:00:28;5.55;;;5.18;;
36303;SDS011;22335;49.800;8.596;2022-09-27T14:07:26;5.60;;;5.40;;
36303;SDS011;22335;49.800;8.596;2022-09-27T14:14:21;5.40;;;5.20;;
36303;SDS011;22335;49.800;8.596;2022-09-27T14:21:15;5.70;;;5.40;;
36303;SDS011;22335;49.800;8.596;2022-09-27T14:28:39;5.65;;;5.40;;
36303;SDS011;22335;49.800;8.596;2022-09-27T14:35:33;5.00;;;4.80;;
36303;SDS011;22335;49.800;8.596;2022-09-27T14:42:33;5.63;;;5.32;;
36303;SDS011;22335;49.800;8.596;2022-09-27T14:49:23;5.95;;;5.40;;
36303;SDS011;22335;49.800;8.596;2022-09-27T14:56:08;5.30;;;4.90;;
36303;SDS011;22335;49.800;8.596;2022-09-27T15:03:00;5.90;;;5.50;;
36303;SDS011;22335;49.800;8.596;2022-09-27T15:09:52;5.90;;;5.50;;
36303;SDS011;22335;49.800;8.596;2022-09-27T15:16:38;5.15;;;4.85;;
36303;SDS011;22335;49.800;8.596;2022-09-27T15:23:25;5.63;;;5.13;;
36303;SDS011;22335;49.800;8.596;2022-09-27T15:30:17;4.90;;;4.70;;
36303;SDS011;22335;49.800;8.596;2022-09-27T15:37:22;5.40;;;5.20;;
36303;SDS011;22335;49.800;8.596;2022-09-27T15:44:18;6.13;;;5.68;;
36303;SDS011;22335;49.800;8.596;2022-09-27T15:58:28;5.67;;;5.37;;
36303;SDS011;22335;49.800;8.596;2022-09-27T16:05:14;5.57;;;5.18;;
36303;SDS011;22335;49.800;8.596;2022-09-27T16:12:02;5.38;;;5.10;;
36303;SDS011;22335;49.800;8.596;2022-09-27T16:18:48;5.50;;;5.20;;
36303;SDS011;22335;49.800;8.596;2022-09-27T16:25:34;5.55;;;5.30;;
36303;SDS011;22335;49.800;8.596;2022-09-27T16:32:22;5.85;;;5.60;;
36303;SDS011;22335;49.800;8.596;2022-09-27T16:39:09;5.50;;;5.30;;
36303;SDS011;22335;49.800;8.596;2022-09-27T16:46:02;5.68;;;5.45;;
36303;SDS011;22335;49.800;8.596;2022-09-27T16:52:55;5.15;;;4.95;;
36303;SDS011;22335;49.800;8.596;2022-09-27T16:59:40;6.00;;;5.60;;
36303;SDS011;22335;49.800;8.596;2022-09-27T17:06:26;5.80;;;5.50;;
36303;SDS011;22335;49.800;8.596;2022-09-27T17:13:14;5.67;;;5.40;;
36303;SDS011;22335;49.800;8.596;2022-09-27T17:20:01;6.15;;;5.65;;
36303;SDS011;22335;49.800;8.596;2022-09-27T17:26:47;6.30;;;5.90;;
36303;SDS011;22335;49.800;8.596;2022-09-27T17:33:38;6.10;;;5.70;;
36303;SDS011;22335;49.800;8.596;2022-09-27T17:40:26;6.43;;;6.03;;
36303;SDS011;22335;49.800;8.596;2022-09-27T17:47:12;6.22;;;5.63;;
36303;SDS011;22335;49.800;8.596;2022-09-27T17:54:12;6.07;;;5.78;;
36303;SDS011;22335;49.800;8.596;2022-09-27T18:01:00;6.38;;;5.97;;
36303;SDS011;22335;49.800;8.596;2022-09-27T18:07:47;6.10;;;5.80;;
36303;SDS011;22335;49.800;8.596;2022-09-27T18:14:35;5.40;;;5.10;;
36303;SDS011;22335;49.800;8.596;2022-09-27T18:21:20;5.60;;;5.20;;
36303;SDS011;22335;49.800;8.596;2022-09-27T18:28:07;5.80;;;5.50;;
36303;SDS011;22335;49.800;8.596;2022-09-27T18:34:55;6.18;;;5.70;;
36303;SDS011;22335;49.800;8.596;2022-09-27T18:41:41;6.13;;;5.80;;
36303;SDS011;22335;49.800;8.596;2022-09-27T18:48:29;6.20;;;5.70;;
36303;SDS011;22335;49.800;8.596;2022-09-27T18:55:18;6.55;;;5.93;;
36303;SDS011;22335;49.800;8.596;2022-09-27T19:02:05;6.60;;;6.20;;
36303;SDS011;22335;49.800;8.596;2022-09-27T19:08:54;6.05;;;5.65;;
36303;SDS011;22335;49.800;8.596;2022-09-27T19:15:43;6.30;;;5.90;;
36303;SDS011;22335;49.800;8.596;2022-09-27T19:22:38;6.70;;;6.10;;
36303;SDS011;22335;49.800;8.596;2022-09-27T19:29:24;6.68;;;6.18;;
36303;SDS011;22335;49.800;8.596;2022-09-27T19:36:13;6.35;;;5.90;;
36303;SDS011;22335;49.800;8.596;2022-09-27T19:43:00;6.57;;;6.10;;
36303;SDS011;22335;49.800;8.596;2022-09-27T19:49:45;7.35;;;6.72;;
36303;SDS011;22335;49.800;8.596;2022-09-27T19:56:33;7.10;;;6.60;;
36303;SDS011;22335;49.800;8.596;2022-09-27T20:03:19;7.00;;;6.57;;
36303;SDS011;22335;49.800;8.596;2022-09-27T20:10:05;7.72;;;7.10;;
36303;SDS011;22335;49.800;8.596;2022-09-27T20:16:55;8.13;;;7.53;;
36303;SDS011;22335;49.800;8.596;2022-09-27T20:23:40;8.73;;;8.00;;
36303;SDS011;22335;49.800;8.596;2022-09-27T20:30:26;8.63;;;7.83;;
36303;SDS011;22335;49.800;8.596;2022-09-27T20:37:15;8.82;;;7.93;;
36303;SDS011;22335;49.800;8.596;2022-09-27T20:44:02;8.30;;;7.60;;
36303;SDS011;22335;49.800;8.596;2022-09-27T20:50:49;8.73;;;8.00;;
36303;SDS011;22335;49.800;8.596;2022-09-27T20:57:47;8.45;;;7.95;;
36303;SDS011;22335;49.800;8.596;2022-09-27T21:04:38;8.27;;;7.88;;
36303;SDS011;22335;49.800;8.596;2022-09-27T21:11:23;8.40;;;7.60;;
36303;SDS011;22335;49.800;8.596;2022-09-27T21:18:12;8.27;;;7.50;;
36303;SDS011;22335;49.800;8.596;2022-09-27T21:25:01;8.30;;;7.75;;
36303;SDS011;22335;49.800;8.596;2022-09-27T21:31:46;8.18;;;7.60;;
36303;SDS011;22335;49.800;8.596;2022-09-27T21:38:34;8.57;;;7.72;;
36303;SDS011;22335;49.800;8.596;2022-09-27T21:45:20;7.90;;;7.50;;
36303;SDS011;22335;49.800;8.596;2022-09-27T21:52:05;8.30;;;7.70;;
36303;SDS011;22335;49.800;8.596;2022-09-27T21:58:53;8.35;;;7.55;;
36303;SDS011;22335;49.800;8.596;2022-09-27T22:05:42;7.97;;;7.47;;
36303;SDS011;22335;49.800;8.596;2022-09-27T22:12:28;8.27;;;7.82;;
36303;SDS011;22335;49.800;8.596;2022-09-27T22:19:16;8.15;;;7.60;;
36303;SDS011;22335;49.800;8.596;2022-09-27T22:26:09;8.30;;;7.60;;
36303;SDS011;22335;49.800;8.596;2022-09-27T22:32:56;8.43;;;7.82;;
36303;SDS011;22335;49.800;8.596;2022-09-27T22:39:44;8.48;;;8.02;;
36303;SDS011;22335;49.800;8.596;2022-09-27T22:46:29;8.00;;;7.50;;
36303;SDS011;22335;49.800;8.596;2022-09-27T22:53:14;7.93;;;7.45;;
36303;SDS011;22335;49.800;8.596;2022-09-27T23:00:03;7.60;;;7.07;;
36303;SDS011;22335;49.800;8.596;2022-09-27T23:06:50;7.32;;;6.90;;
36303;SDS011;22335;49.800;8.596;2022-09-27T23:13:36;7.70;;;7.20;;
36303;SDS011;22335;49.800;8.596;2022-09-27T23:20:26;8.40;;;7.90;;
36303;SDS011;22335;49.800;8.596;2022-09-27T23:27:12;8.70;;;8.00;;
36303;SDS011;22335;49.800;8.596;2022-09-27T23:34:10;8.52;;;7.80;;
36303;SDS011;22335;49.800;8.596;2022-09-27T23:40:58;8.30;;;7.60;;
36303;SDS011;22335;49.800;8.596;2022-09-27T23:47:44;8.00;;;7.60;;
36303;SDS011;22335;49.800;8.596;2022-09-27T23:54:30;9.05;;;8.18;;
